createdAt,value
2019-05-06T00:00:55.747Z,8.00
2019-05-06T00:03:34.326Z,8.63
2019-05-06T00:06:19.538Z,8.83
2019-05-06T00:09:07.442Z,8.95
2019-05-06T00:11:54.683Z,8.35
2019-05-06T00:14:43.668Z,8.86
2019-05-06T00:17:29.126Z,8.30
2019-05-06T00:20:16.163Z,8.15
2019-05-06T00:23:21.397Z,8.06
2019-05-06T00:26:26.662Z,7.96
2019-05-06T00:29:14.011Z,7.88
2019-05-06T00:32:00.547Z,7.82
2019-05-06T00:34:50.014Z,7.77
2019-05-06T00:37:36.840Z,7.72
2019-05-06T00:43:30.521Z,7.56
2019-05-06T00:46:17.663Z,7.49
2019-05-06T00:49:04.754Z,8.08
2019-05-06T00:51:54.900Z,8.24
2019-05-06T00:54:39.916Z,7.64
2019-05-06T00:57:27.721Z,7.44
2019-05-06T01:00:14.746Z,7.31
2019-05-06T01:03:04.315Z,7.16
2019-05-06T01:05:54.254Z,7.74
2019-05-06T01:08:38.858Z,7.15
2019-05-06T01:11:26.040Z,7.66
2019-05-06T01:14:16.878Z,7.03
2019-05-06T01:17:04.004Z,6.82
2019-05-06T01:19:50.628Z,6.68
2019-05-06T01:22:37.717Z,6.57
2019-05-06T01:25:25.432Z,6.46
2019-05-06T01:28:13.794Z,6.37
2019-05-06T01:31:00.432Z,6.30
2019-05-06T01:33:48.513Z,6.24
2019-05-06T01:36:35.355Z,6.19
2019-05-06T01:39:31.060Z,6.15
2019-05-06T01:42:37.801Z,6.09
2019-05-06T01:45:24.969Z,6.02
2019-05-06T01:48:15.615Z,5.98
2019-05-06T01:51:03.590Z,5.95
2019-05-06T01:53:50.305Z,5.90
2019-05-06T01:56:38.703Z,5.87
2019-05-06T01:59:25.615Z,5.83
2019-05-06T02:02:14.175Z,5.80
2019-05-06T02:04:59.174Z,5.76
2019-05-06T02:07:46.373Z,5.73
2019-05-06T02:10:34.640Z,5.68
2019-05-06T02:13:20.697Z,5.61
2019-05-06T02:16:07.725Z,6.23
2019-05-06T02:18:55.366Z,6.39
2019-05-06T02:21:43.838Z,5.78
2019-05-06T02:24:29.878Z,5.59
2019-05-06T02:27:17.808Z,5.47
2019-05-06T02:30:25.224Z,5.38
2019-05-06T02:39:55.303Z,5.11
2019-05-06T02:42:44.783Z,5.06
2019-05-06T02:45:33.498Z,5.02
2019-05-06T02:51:44.309Z,5.08
2019-05-06T02:54:34.441Z,4.97
2019-05-06T02:57:18.219Z,4.91
2019-05-06T03:00:15.196Z,4.84
2019-05-06T03:03:02.981Z,4.79
2019-05-06T03:05:49.423Z,4.72
2019-05-06T03:08:53.291Z,4.63
2019-05-06T03:11:38.379Z,4.58
2019-05-06T03:14:25.504Z,4.51
2019-05-06T03:20:36.737Z,4.28
2019-05-06T03:23:24.014Z,4.16
2019-05-06T03:26:25.304Z,4.07
2019-05-06T03:29:26.796Z,3.98
2019-05-06T03:32:16.461Z,3.88
2019-05-06T03:35:25.808Z,3.80
2019-05-06T03:37:48.152Z,3.72
2019-05-06T03:40:36.658Z,4.34
2019-05-06T03:43:23.281Z,3.84
2019-05-06T03:46:14.242Z,3.72
2019-05-06T03:49:04.775Z,3.66
2019-05-06T03:51:55.945Z,3.60
2019-05-06T03:54:39.293Z,3.54
2019-05-06T04:00:33.352Z,3.43
2019-05-06T04:03:41.176Z,3.41
2019-05-06T04:06:24.404Z,3.38
2019-05-06T04:09:13.259Z,3.34
2019-05-06T04:11:58.434Z,4.05
2019-05-06T04:14:45.303Z,3.58
2019-05-06T04:20:59.141Z,3.46
2019-05-06T04:23:46.399Z,3.45
2019-05-06T04:26:39.207Z,3.45
2019-05-06T04:29:27.600Z,4.23
2019-05-06T04:32:14.813Z,3.78
2019-05-06T04:35:09.586Z,3.75
2019-05-06T04:37:56.306Z,3.76
2019-05-06T04:40:44.465Z,3.79
2019-05-06T04:43:33.633Z,3.84
2019-05-06T04:46:23.654Z,3.90
2019-05-06T04:49:10.713Z,3.98
2019-05-06T04:51:55.061Z,4.07
2019-05-06T04:57:47.829Z,4.26
2019-05-06T05:00:35.083Z,4.33
2019-05-06T05:03:22.892Z,4.37
2019-05-06T05:06:09.334Z,4.41
2019-05-06T05:08:55.984Z,4.47
2019-05-06T05:11:45.557Z,4.55
2019-05-06T05:14:35.356Z,4.63
2019-05-06T05:17:28.215Z,4.71
2019-05-06T05:20:14.892Z,4.81
2019-05-06T05:23:02.290Z,5.62
2019-05-06T05:25:48.709Z,5.29
2019-05-06T05:28:35.638Z,5.32
2019-05-06T05:31:23.088Z,5.40
2019-05-06T05:34:12.666Z,5.51
2019-05-06T05:36:57.850Z,5.62
2019-05-06T05:39:44.595Z,5.73
2019-05-06T05:42:32.746Z,5.85
2019-05-06T05:45:18.711Z,6.69
2019-05-06T05:48:09.134Z,6.38
2019-05-06T05:50:56.026Z,6.43
2019-05-06T05:53:42.970Z,6.54
2019-05-06T05:56:29.639Z,6.66
2019-05-06T05:59:16.557Z,6.76
2019-05-06T06:02:03.920Z,6.89
2019-05-06T06:04:57.188Z,7.01
2019-05-06T06:07:42.239Z,7.15
2019-05-06T06:10:36.684Z,7.29
2019-05-06T06:13:23.610Z,7.42
2019-05-06T06:16:13.299Z,7.62
2019-05-06T06:19:03.665Z,7.86
2019-05-06T06:21:56.265Z,8.04
2019-05-06T06:24:42.999Z,9.00
2019-05-06T06:27:30.149Z,8.68
2019-05-06T06:30:17.508Z,8.70
2019-05-06T06:33:04.757Z,8.91
2019-05-06T06:35:51.999Z,9.18
2019-05-06T06:38:53.973Z,9.41
2019-05-06T06:41:42.402Z,9.73
2019-05-06T06:44:27.950Z,9.88
2019-05-06T06:47:14.859Z,9.99
2019-05-06T06:50:02.868Z,10.01
2019-05-06T06:52:48.893Z,11.03
2019-05-06T06:55:36.026Z,10.41
2019-05-06T06:58:23.251Z,10.55
2019-05-06T07:01:13.016Z,10.40
2019-05-06T07:04:03.181Z,10.49
2019-05-06T07:06:47.101Z,11.85
2019-05-06T07:09:34.497Z,11.33
2019-05-06T07:12:23.437Z,11.37
2019-05-06T07:15:09.222Z,11.39
2019-05-06T07:17:55.949Z,12.74
2019-05-06T07:20:46.030Z,12.37
2019-05-06T07:23:33.050Z,12.48
2019-05-06T07:29:26.856Z,12.71
2019-05-06T07:32:13.087Z,12.53
2019-05-06T07:35:02.087Z,12.36
2019-05-06T07:37:47.112Z,12.25
2019-05-06T07:40:34.497Z,12.16
2019-05-06T07:43:27.978Z,12.21
2019-05-06T07:46:23.498Z,12.27
2019-05-06T07:49:09.496Z,12.52
2019-05-06T07:51:56.920Z,12.75
2019-05-06T07:54:44.046Z,13.08
2019-05-06T07:57:32.817Z,13.09
2019-05-06T08:00:17.741Z,13.29
2019-05-06T08:03:04.772Z,13.41
2019-05-06T08:05:58.212Z,13.27
2019-05-06T08:08:43.259Z,13.36
2019-05-06T08:11:29.374Z,13.42
2019-05-06T08:14:16.209Z,13.53
2019-05-06T08:17:03.201Z,15.02
2019-05-06T08:19:50.021Z,14.19
2019-05-06T08:26:10.075Z,14.18
2019-05-06T08:28:45.865Z,14.20
2019-05-06T08:31:32.813Z,14.42
2019-05-06T08:34:22.477Z,14.73
2019-05-06T08:37:12.595Z,15.23
2019-05-06T08:40:03.388Z,16.63
2019-05-06T08:42:49.630Z,16.45
2019-05-06T08:45:36.542Z,16.39
2019-05-06T08:48:23.774Z,15.05
2019-05-06T08:51:10.375Z,14.71
2019-05-06T08:53:57.258Z,14.57
2019-05-06T08:56:43.994Z,14.24
2019-05-06T08:59:32.084Z,14.06
2019-05-06T09:02:18.192Z,14.13
2019-05-06T09:05:05.351Z,13.87
2019-05-06T09:07:52.652Z,13.77
2019-05-06T09:10:39.683Z,13.79
2019-05-06T09:13:26.698Z,13.57
2019-05-06T09:16:13.600Z,13.28
2019-05-06T09:19:04.439Z,13.16
2019-05-06T09:21:47.630Z,12.97
2019-05-06T09:24:34.444Z,14.02
2019-05-06T09:27:22.631Z,14.05
2019-05-06T09:30:08.885Z,12.83
2019-05-06T09:32:55.574Z,12.41
2019-05-06T09:35:42.760Z,12.20
2019-05-06T09:38:32.059Z,12.24
2019-05-06T09:41:16.616Z,12.19
2019-05-06T09:44:17.717Z,12.28
2019-05-06T09:47:06.844Z,12.50
2019-05-06T09:49:53.704Z,12.69
2019-05-06T09:52:42.678Z,12.90
2019-05-06T09:55:49.324Z,12.97
2019-05-06T09:58:36.499Z,13.08
2019-05-06T10:01:23.800Z,13.19
2019-05-06T10:04:12.959Z,13.43
2019-05-06T10:07:00.039Z,13.47
2019-05-06T10:09:44.598Z,13.63
2019-05-06T10:12:32.886Z,13.88
2019-05-06T10:18:25.345Z,14.43
2019-05-06T10:21:12.578Z,14.65
2019-05-06T10:23:59.392Z,14.88
2019-05-06T10:26:46.161Z,15.42
2019-05-06T10:29:32.983Z,17.28
2019-05-06T10:32:32.781Z,16.25
2019-05-06T10:35:19.194Z,15.78
2019-05-06T10:38:34.701Z,17.19
2019-05-06T10:44:46.100Z,15.99
2019-05-06T10:47:33.627Z,16.07
2019-05-06T10:50:22.865Z,16.07
2019-05-06T10:53:14.406Z,16.31
2019-05-06T10:56:23.053Z,16.30
2019-05-06T10:59:09.829Z,16.30
2019-05-06T11:02:14.967Z,16.49
2019-05-06T11:05:02.762Z,16.52
2019-05-06T11:07:52.028Z,16.52
2019-05-06T11:10:41.228Z,16.57
2019-05-06T11:13:24.425Z,16.66
2019-05-06T11:16:12.817Z,16.53
2019-05-06T11:18:57.857Z,16.03
2019-05-06T11:21:45.094Z,15.81
2019-05-06T11:24:32.636Z,15.79
2019-05-06T11:27:31.130Z,15.59
2019-05-06T11:30:06.578Z,16.95
2019-05-06T11:32:54.800Z,15.62
2019-05-06T11:35:56.193Z,15.35
2019-05-06T11:38:43.233Z,15.19
2019-05-06T11:41:32.106Z,15.26
2019-05-06T11:44:23.595Z,15.29
2019-05-06T11:47:07.245Z,15.53
2019-05-06T11:49:56.298Z,15.71
2019-05-06T11:52:43.605Z,15.68
2019-05-06T11:55:38.817Z,15.49
2019-05-06T11:58:43.003Z,15.38
2019-05-06T12:04:35.554Z,15.84
2019-05-06T12:07:24.508Z,15.86
2019-05-06T12:10:09.477Z,15.84
2019-05-06T12:12:56.888Z,15.84
2019-05-06T12:15:43.795Z,15.94
2019-05-06T12:18:30.702Z,16.36
2019-05-06T12:21:19.222Z,16.79
2019-05-06T12:24:04.541Z,18.39
2019-05-06T12:26:52.763Z,17.46
2019-05-06T12:29:42.664Z,17.39
2019-05-06T12:32:26.794Z,17.27
2019-05-06T12:35:13.992Z,17.34
2019-05-06T12:38:06.726Z,17.13
2019-05-06T12:40:54.811Z,16.51
2019-05-06T12:43:44.890Z,16.51
2019-05-06T12:46:35.366Z,16.60
2019-05-06T12:49:22.910Z,16.83
2019-05-06T12:52:12.231Z,16.93
2019-05-06T12:55:14.596Z,17.29
2019-05-06T13:00:50.292Z,17.46
2019-05-06T13:03:37.586Z,17.63
2019-05-06T13:06:26.446Z,17.25
2019-05-06T13:09:12.732Z,17.02
2019-05-06T13:11:58.318Z,16.60
2019-05-06T13:14:45.167Z,16.51
2019-05-06T13:17:32.916Z,16.55
2019-05-06T13:20:19.195Z,16.47
2019-05-06T13:23:08.847Z,16.47
2019-05-06T13:25:53.334Z,16.40
2019-05-06T13:28:42.542Z,16.36
2019-05-06T13:31:28.799Z,16.27
2019-05-06T13:34:18.817Z,16.33
2019-05-06T13:37:06.101Z,16.56
2019-05-06T13:39:53.338Z,16.61
2019-05-06T13:45:52.586Z,16.62
2019-05-06T13:48:38.516Z,18.28
2019-05-06T13:51:25.915Z,17.34
2019-05-06T13:54:15.990Z,17.19
2019-05-06T13:57:00.180Z,17.25
2019-05-06T13:59:47.464Z,17.03
2019-05-06T14:02:34.488Z,16.97
2019-05-06T14:05:21.596Z,16.80
2019-05-06T14:08:08.849Z,16.69
2019-05-06T14:11:00.077Z,16.71
2019-05-06T14:13:45.200Z,16.77
2019-05-06T14:16:33.501Z,18.43
2019-05-06T14:19:19.031Z,17.30
2019-05-06T14:22:06.725Z,17.28
2019-05-06T14:25:12.711Z,17.56
2019-05-06T14:28:05.113Z,17.72
2019-05-06T14:30:53.194Z,17.57
2019-05-06T14:33:39.450Z,17.47
2019-05-06T14:36:27.682Z,17.21
2019-05-06T14:39:13.945Z,17.38
2019-05-06T14:42:03.955Z,17.08
2019-05-06T14:44:47.687Z,16.83
2019-05-06T14:50:46.184Z,18.01
2019-05-06T14:53:27.813Z,17.01
2019-05-06T14:56:22.635Z,17.67
2019-05-06T14:59:07.770Z,18.21
2019-05-06T15:01:55.079Z,18.25
2019-05-06T15:04:43.441Z,18.02
2019-05-06T15:07:29.110Z,17.73
2019-05-06T15:10:23.050Z,17.17
2019-05-06T15:13:03.508Z,17.19
2019-05-06T15:15:52.242Z,17.82
2019-05-06T15:18:37.248Z,18.29
2019-05-06T15:21:36.492Z,18.89
2019-05-06T15:24:14.735Z,19.65
2019-05-06T15:27:02.697Z,20.14
2019-05-06T15:29:49.821Z,20.26
2019-05-06T15:32:37.056Z,19.69
2019-05-06T15:35:26.706Z,20.49
2019-05-06T15:38:19.572Z,18.59
2019-05-06T15:41:06.413Z,17.62
2019-05-06T15:43:54.411Z,17.02
2019-05-06T15:46:43.039Z,16.61
2019-05-06T15:49:31.919Z,17.83
2019-05-06T15:52:17.298Z,16.61
2019-05-06T15:55:07.035Z,16.27
2019-05-06T15:57:54.104Z,16.01
2019-05-06T16:00:42.411Z,15.80
2019-05-06T16:03:27.725Z,15.75
2019-05-06T16:06:22.895Z,15.71
2019-05-06T16:09:08.965Z,15.72
2019-05-06T16:11:58.472Z,15.77
2019-05-06T16:14:45.196Z,15.59
2019-05-06T16:17:32.840Z,15.63
2019-05-06T16:20:19.546Z,15.66
2019-05-06T16:23:06.737Z,15.48
2019-05-06T16:25:55.063Z,15.50
2019-05-06T16:28:44.964Z,15.77
2019-05-06T16:31:30.083Z,16.50
2019-05-06T16:34:16.947Z,16.68
2019-05-06T16:37:03.865Z,16.67
2019-05-06T16:39:52.483Z,17.07
2019-05-06T16:42:45.412Z,18.35
2019-05-06T16:45:30.227Z,19.83
2019-05-06T16:48:17.090Z,20.51
2019-05-06T16:51:04.924Z,20.94
2019-05-06T16:53:53.134Z,19.80
2019-05-06T16:56:42.176Z,18.60
2019-05-06T16:59:27.597Z,17.89
2019-05-06T17:02:15.247Z,17.94
2019-05-06T17:05:17.529Z,19.19
2019-05-06T17:08:04.758Z,17.40
2019-05-06T17:10:53.163Z,17.97
2019-05-06T17:13:39.708Z,16.31
2019-05-06T17:16:26.624Z,15.78
2019-05-06T17:19:22.862Z,16.99
2019-05-06T17:22:22.911Z,16.61
2019-05-06T17:25:16.305Z,17.03
2019-05-06T17:28:18.458Z,16.85
2019-05-06T17:31:05.269Z,17.92
2019-05-06T17:33:51.975Z,17.65
2019-05-06T17:39:45.349Z,15.42
2019-05-06T17:45:42.880Z,14.47
2019-05-06T17:48:33.912Z,14.10
2019-05-06T17:51:23.381Z,15.05
2019-05-06T17:54:12.325Z,13.99
2019-05-06T18:00:04.789Z,13.50
2019-05-06T18:12:09.238Z,12.84
2019-05-06T18:14:57.442Z,13.62
2019-05-06T18:17:44.295Z,12.87
2019-05-06T18:20:45.640Z,12.64
2019-05-06T18:29:44.928Z,12.17
2019-05-06T18:35:42.473Z,11.87
2019-05-06T18:38:30.129Z,11.80
2019-05-06T18:41:16.845Z,11.73
2019-05-06T18:44:04.179Z,12.48
2019-05-06T18:46:53.721Z,11.84
2019-05-06T18:49:42.453Z,11.69
2019-05-06T18:52:27.781Z,11.57
2019-05-06T18:55:15.027Z,11.47
2019-05-06T18:58:02.387Z,11.37
2019-05-06T19:00:48.953Z,11.31
2019-05-06T19:06:42.461Z,11.09
2019-05-06T19:09:35.108Z,11.04
2019-05-06T19:12:30.514Z,10.98
2019-05-06T19:15:08.718Z,10.86
2019-05-06T19:17:58.610Z,10.83
2019-05-06T19:23:54.832Z,10.79
2019-05-06T19:26:39.446Z,11.58
2019-05-06T19:29:26.208Z,11.06
2019-05-06T19:32:12.836Z,10.91
2019-05-06T19:34:59.710Z,10.80
2019-05-06T19:38:02.993Z,10.70
2019-05-06T19:40:47.433Z,10.64
2019-05-06T19:43:34.190Z,10.51
2019-05-06T19:49:28.225Z,11.21
2019-05-06T19:52:15.033Z,10.56
2019-05-06T19:55:03.155Z,10.42
2019-05-06T19:57:49.193Z,10.26
2019-05-06T20:00:35.972Z,10.19
2019-05-06T20:09:53.961Z,9.91
2019-05-06T20:12:40.924Z,9.85
2019-05-06T20:15:36.692Z,9.80
2019-05-06T20:18:24.792Z,9.75
2019-05-06T20:21:11.808Z,9.71
2019-05-06T20:23:58.649Z,9.71
2019-05-06T20:29:52.288Z,9.67
2019-05-06T20:32:38.726Z,9.63
2019-05-06T20:35:25.597Z,9.61
2019-05-06T20:38:13.042Z,9.59
2019-05-06T20:41:02.872Z,9.56
2019-05-06T21:14:46.867Z,8.57
2019-05-06T21:17:34.149Z,8.37
2019-05-06T21:20:20.793Z,8.23
2019-05-06T21:23:07.727Z,8.10
2019-05-06T21:29:03.086Z,8.86
2019-05-06T21:34:54.236Z,7.88
2019-05-06T21:37:42.283Z,7.68
2019-05-06T21:40:27.918Z,8.31
2019-05-06T21:46:20.909Z,7.36
2019-05-06T21:49:08.093Z,7.19
2019-05-06T21:51:54.857Z,7.02
2019-05-06T21:54:43.434Z,6.89
2019-05-06T22:00:35.915Z,6.68
2019-05-06T22:03:23.070Z,6.59
2019-05-06T22:06:10.249Z,6.52
2019-05-06T22:08:57.863Z,6.44
2019-05-06T22:12:02.271Z,6.36
2019-05-06T22:14:47.342Z,6.28
2019-05-06T22:24:04.933Z,6.31
2019-05-06T22:26:52.034Z,6.21
2019-05-06T22:29:38.589Z,6.08
2019-05-06T22:32:26.162Z,5.99
2019-05-06T22:35:22.900Z,5.91
2019-05-06T22:41:27.807Z,5.75
2019-05-06T22:44:29.654Z,5.70
2019-05-06T22:47:16.771Z,5.69
2019-05-06T22:50:03.678Z,5.67
2019-05-06T22:59:03.324Z,5.69
2019-05-06T23:01:55.092Z,5.71
2019-05-06T23:20:12.328Z,6.85
2019-05-06T23:22:59.423Z,6.34
2019-05-06T23:42:52.606Z,6.26
2019-05-06T23:46:35.202Z,6.19
2019-05-06T23:50:25.474Z,6.13
2019-05-06T23:54:08.861Z,6.07
2019-05-06T23:57:14.615Z,6.00
